sensor_id;sensor_type;location;lat;lon;timestamp;pressure;altitude;pressure_sealevel;temperature;humidity
14800;BME280;7491;57.750;11.970;2022-09-16T00:00:54;74027.97;;;-142.11;100.00
14800;BME280;7491;57.750;11.970;2022-09-16T00:03:21;74021.88;;;-142.11;100.00
14800;BME280;7491;57.750;11.970;2022-09-16T00:05:49;74017.78;;;-142.11;100.00
14800;BME280;7491;57.750;11.970;2022-09-16T00:08:16;74015.75;;;-142.11;100.00
14800;BME280;7491;57.750;11.970;2022-09-16T00:10:45;74007.59;;;-142.11;100.00
14800;BME280;7491;57.750;11.970;2022-09-16T00:13:12;74011.69;;;-142.11;100.00
14800;BME280;7491;57.750;11.970;2022-09-16T00:15:41;74013.72;;;-142.11;100.00
14800;BME280;7491;57.750;11.970;2022-09-16T00:18:08;74015.75;;;-142.11;100.00
14800;BME280;7491;57.750;11.970;2022-09-16T00:20:35;74011.69;;;-142.11;100.00
14800;BME280;7491;57.750;11.970;2022-09-16T00:23:01;74003.53;;;-142.11;100.00
14800;BME280;7491;57.750;11.970;2022-09-16T00:25:31;74003.53;;;-142.11;100.00
14800;BME280;7491;57.750;11.970;2022-09-16T00:27:59;74003.53;;;-142.11;100.00
14800;BME280;7491;57.750;11.970;2022-09-16T00:30:26;74013.72;;;-142.11;100.00
14800;BME280;7491;57.750;11.970;2022-09-16T00:32:52;74003.53;;;-142.11;100.00
14800;BME280;7491;57.750;11.970;2022-09-16T00:35:19;73995.38;;;-142.11;100.00
14800;BME280;7491;57.750;11.970;2022-09-16T00:37:47;73991.31;;;-142.11;100.00
14800;BME280;7491;57.750;11.970;2022-09-16T00:40:13;73985.19;;;-142.11;100.00
14800;BME280;7491;57.750;11.970;2022-09-16T00:42:40;73981.13;;;-142.11;100.00
14800;BME280;7491;57.750;11.970;2022-09-16T00:45:14;73985.19;;;-142.11;100.00
14800;BME280;7491;57.750;11.970;2022-09-16T00:47:43;73987.25;;;-142.11;100.00
14800;BME280;7491;57.750;11.970;2022-09-16T00:50:16;73991.31;;;-142.11;100.00
14800;BME280;7491;57.750;11.970;2022-09-16T00:52:46;73983.16;;;-142.11;100.00
14800;BME280;7491;57.750;11.970;2022-09-16T00:55:16;73985.19;;;-142.11;100.00
14800;BME280;7491;57.750;11.970;2022-09-16T00:57:43;73985.19;;;-142.11;100.00
14800;BME280;7491;57.750;11.970;2022-09-16T01:00:12;73987.25;;;-142.11;100.00
14800;BME280;7491;57.750;11.970;2022-09-16T01:02:40;73993.34;;;-142.11;100.00
14800;BME280;7491;57.750;11.970;2022-09-16T01:05:10;73991.31;;;-142.11;100.00
14800;BME280;7491;57.750;11.970;2022-09-16T01:07:41;73993.34;;;-142.11;100.00
14800;BME280;7491;57.750;11.970;2022-09-16T01:10:08;74001.50;;;-142.11;100.00
14800;BME280;7491;57.750;11.970;2022-09-16T01:12:35;74005.56;;;-142.11;100.00
14800;BME280;7491;57.750;11.970;2022-09-16T01:15:04;74013.72;;;-142.11;100.00
14800;BME280;7491;57.750;11.970;2022-09-16T01:17:46;74017.78;;;-142.11;100.00
14800;BME280;7491;57.750;11.970;2022-09-16T01:23:31;74027.97;;;-142.11;100.00
14800;BME280;7491;57.750;11.970;2022-09-16T01:26:13;74038.16;;;-142.11;100.00
14800;BME280;7491;57.750;11.970;2022-09-16T01:28:58;74048.34;;;-142.11;100.00
14800;BME280;7491;57.750;11.970;2022-09-16T01:31:35;74056.50;;;-142.11;100.00
14800;BME280;7491;57.750;11.970;2022-09-16T01:34:13;74062.63;;;-142.11;100.00
14800;BME280;7491;57.750;11.970;2022-09-16T01:36:47;74064.66;;;-142.11;100.00
14800;BME280;7491;57.750;11.970;2022-09-16T01:39:24;74074.84;;;-142.11;100.00
14800;BME280;7491;57.750;11.970;2022-09-16T01:42:02;74080.94;;;-142.11;100.00
14800;BME280;7491;57.750;11.970;2022-09-16T01:44:36;74087.06;;;-142.11;100.00
14800;BME280;7491;57.750;11.970;2022-09-16T01:47:11;74093.16;;;-142.11;100.00
14800;BME280;7491;57.750;11.970;2022-09-16T01:49:45;74093.16;;;-142.11;100.00
14800;BME280;7491;57.750;11.970;2022-09-16T01:52:21;74095.22;;;-142.11;100.00
14800;BME280;7491;57.750;11.970;2022-09-16T01:54:54;74107.44;;;-142.11;100.00
14800;BME280;7491;57.750;11.970;2022-09-16T01:57:26;74117.63;;;-142.11;100.00
14800;BME280;7491;57.750;11.970;2022-09-16T01:59:59;74113.53;;;-142.11;100.00
14800;BME280;7491;57.750;11.970;2022-09-16T02:02:31;74117.63;;;-142.11;100.00
14800;BME280;7491;57.750;11.970;2022-09-16T02:05:04;74123.72;;;-142.11;100.00
14800;BME280;7491;57.750;11.970;2022-09-16T02:07:37;74140.03;;;-142.11;100.00
14800;BME280;7491;57.750;11.970;2022-09-16T02:10:11;74138.00;;;-142.11;100.00
14800;BME280;7491;57.750;11.970;2022-09-16T02:12:42;74146.16;;;-142.11;100.00
14800;BME280;7491;57.750;11.970;2022-09-16T02:15:12;74142.06;;;-142.11;100.00
14800;BME280;7491;57.750;11.970;2022-09-16T02:17:49;74150.22;;;-142.11;100.00
14800;BME280;7491;57.750;11.970;2022-09-16T02:20:19;74150.22;;;-142.11;100.00
14800;BME280;7491;57.750;11.970;2022-09-16T02:22:52;74150.22;;;-142.11;100.00
14800;BME280;7491;57.750;11.970;2022-09-16T02:25:22;74156.31;;;-142.11;100.00
14800;BME280;7491;57.750;11.970;2022-09-16T02:27:50;74158.38;;;-142.11;100.00
14800;BME280;7491;57.750;11.970;2022-09-16T02:30:20;74156.31;;;-142.11;100.00
14800;BME280;7491;57.750;11.970;2022-09-16T02:32:52;74162.44;;;-142.11;100.00
14800;BME280;7491;57.750;11.970;2022-09-16T02:35:20;74166.50;;;-142.11;100.00
14800;BME280;7491;57.750;11.970;2022-09-16T02:37:50;74168.56;;;-142.11;100.00
14800;BME280;7491;57.750;11.970;2022-09-16T02:40:22;74162.44;;;-142.11;100.00
14800;BME280;7491;57.750;11.970;2022-09-16T02:42:50;74156.31;;;-142.11;100.00
14800;BME280;7491;57.750;11.970;2022-09-16T02:45:17;74140.03;;;-142.11;100.00
14800;BME280;7491;57.750;11.970;2022-09-16T02:47:53;74129.84;;;-142.11;100.00
14800;BME280;7491;57.750;11.970;2022-09-16T02:50:27;74119.66;;;-142.11;100.00
14800;BME280;7491;57.750;11.970;2022-09-16T02:52:58;74105.41;;;-142.11;100.00
14800;BME280;7491;57.750;11.970;2022-09-16T02:55:33;74095.22;;;-142.11;100.00
14800;BME280;7491;57.750;11.970;2022-09-16T02:58:04;74097.25;;;-142.11;100.00
14800;BME280;7491;57.750;11.970;2022-09-16T03:00:32;74103.34;;;-142.11;100.00
14800;BME280;7491;57.750;11.970;2022-09-16T03:03:03;74099.28;;;-142.11;100.00
14800;BME280;7491;57.750;11.970;2022-09-16T03:05:30;74107.44;;;-142.11;100.00
14800;BME280;7491;57.750;11.970;2022-09-16T03:07:57;74109.47;;;-142.11;100.00
14800;BME280;7491;57.750;11.970;2022-09-16T03:10:30;74115.59;;;-142.11;100.00
14800;BME280;7491;57.750;11.970;2022-09-16T03:13:03;74119.66;;;-142.11;100.00
14800;BME280;7491;57.750;11.970;2022-09-16T03:15:53;74127.81;;;-142.11;100.00
14800;BME280;7491;57.750;11.970;2022-09-16T03:18:38;74123.72;;;-142.11;100.00
14800;BME280;7491;57.750;11.970;2022-09-16T03:21:15;74133.91;;;-142.11;100.00
14800;BME280;7491;57.750;11.970;2022-09-16T03:23:48;74125.78;;;-142.11;100.00
14800;BME280;7491;57.750;11.970;2022-09-16T03:26:26;74125.78;;;-142.11;100.00
14800;BME280;7491;57.750;11.970;2022-09-16T03:29:03;74125.78;;;-142.11;100.00
14800;BME280;7491;57.750;11.970;2022-09-16T03:31:41;74121.69;;;-142.11;100.00
14800;BME280;7491;57.750;11.970;2022-09-16T03:34:15;74123.72;;;-142.11;100.00
14800;BME280;7491;57.750;11.970;2022-09-16T03:36:49;74115.59;;;-142.11;100.00
14800;BME280;7491;57.750;11.970;2022-09-16T03:39:17;74107.44;;;-142.11;100.00
14800;BME280;7491;57.750;11.970;2022-09-16T03:41:44;74113.53;;;-142.11;100.00
14800;BME280;7491;57.750;11.970;2022-09-16T03:44:10;74105.41;;;-142.11;100.00
14800;BME280;7491;57.750;11.970;2022-09-16T03:46:40;74107.44;;;-142.11;100.00
14800;BME280;7491;57.750;11.970;2022-09-16T03:49:06;74105.41;;;-142.11;100.00
14800;BME280;7491;57.750;11.970;2022-09-16T03:51:34;74111.50;;;-142.11;100.00
14800;BME280;7491;57.750;11.970;2022-09-16T03:54:01;74111.50;;;-142.11;100.00
14800;BME280;7491;57.750;11.970;2022-09-16T03:56:27;74111.50;;;-142.11;100.00
14800;BME280;7491;57.750;11.970;2022-09-16T03:58:54;74105.41;;;-142.11;100.00
14800;BME280;7491;57.750;11.970;2022-09-16T04:01:20;74107.44;;;-142.11;100.00
14800;BME280;7491;57.750;11.970;2022-09-16T04:03:47;74107.44;;;-142.11;100.00
14800;BME280;7491;57.750;11.970;2022-09-16T04:06:14;74115.59;;;-142.11;100.00
14800;BME280;7491;57.750;11.970;2022-09-16T04:08:41;74117.63;;;-142.11;100.00
14800;BME280;7491;57.750;11.970;2022-09-16T04:11:09;74129.84;;;-142.11;100.00
14800;BME280;7491;57.750;11.970;2022-09-16T04:13:36;74135.97;;;-142.11;100.00
14800;BME280;7491;57.750;11.970;2022-09-16T04:16:03;74146.16;;;-142.11;100.00
14800;BME280;7491;57.750;11.970;2022-09-16T04:18:30;74133.91;;;-142.11;100.00
14800;BME280;7491;57.750;11.970;2022-09-16T04:20:57;74135.97;;;-142.11;100.00
14800;BME280;7491;57.750;11.970;2022-09-16T04:23:24;74148.19;;;-142.11;100.00
14800;BME280;7491;57.750;11.970;2022-09-16T04:25:55;74150.22;;;-142.11;100.00
14800;BME280;7491;57.750;11.970;2022-09-16T04:28:22;74148.19;;;-142.11;100.00
14800;BME280;7491;57.750;11.970;2022-09-16T04:30:49;74154.28;;;-142.11;100.00
14800;BME280;7491;57.750;11.970;2022-09-16T04:33:16;74156.31;;;-142.11;100.00
14800;BME280;7491;57.750;11.970;2022-09-16T04:35:43;74158.38;;;-142.11;100.00
14800;BME280;7491;57.750;11.970;2022-09-16T04:38:09;74160.41;;;-142.11;100.00
14800;BME280;7491;57.750;11.970;2022-09-16T04:40:36;74166.50;;;-142.11;100.00
14800;BME280;7491;57.750;11.970;2022-09-16T04:43:05;74174.66;;;-142.11;100.00
14800;BME280;7491;57.750;11.970;2022-09-16T04:45:31;74180.78;;;-142.11;100.00
14800;BME280;7491;57.750;11.970;2022-09-16T04:47:58;74184.84;;;-142.11;100.00
14800;BME280;7491;57.750;11.970;2022-09-16T04:50:25;74195.03;;;-142.11;100.00
14800;BME280;7491;57.750;11.970;2022-09-16T04:52:52;74201.16;;;-142.11;100.00
14800;BME280;7491;57.750;11.970;2022-09-16T04:55:18;74197.06;;;-142.11;100.00
14800;BME280;7491;57.750;11.970;2022-09-16T04:57:47;74209.28;;;-142.11;100.00
14800;BME280;7491;57.750;11.970;2022-09-16T05:00:15;74209.28;;;-142.11;100.00
14800;BME280;7491;57.750;11.970;2022-09-16T05:02:42;74203.19;;;-142.11;100.00
14800;BME280;7491;57.750;11.970;2022-09-16T05:05:09;74207.25;;;-142.11;100.00
14800;BME280;7491;57.750;11.970;2022-09-16T05:07:36;74207.25;;;-142.11;100.00
14800;BME280;7491;57.750;11.970;2022-09-16T05:10:03;74203.19;;;-142.11;100.00
14800;BME280;7491;57.750;11.970;2022-09-16T05:12:29;74207.25;;;-142.11;100.00
14800;BME280;7491;57.750;11.970;2022-09-16T05:14:56;74201.16;;;-142.11;100.00
14800;BME280;7491;57.750;11.970;2022-09-16T05:17:24;74199.13;;;-142.11;100.00
14800;BME280;7491;57.750;11.970;2022-09-16T05:19:51;74201.16;;;-142.11;100.00
14800;BME280;7491;57.750;11.970;2022-09-16T05:22:17;74201.16;;;-142.11;100.00
14800;BME280;7491;57.750;11.970;2022-09-16T05:24:44;74203.19;;;-142.11;100.00
14800;BME280;7491;57.750;11.970;2022-09-16T05:27:11;74215.41;;;-142.11;100.00
14800;BME280;7491;57.750;11.970;2022-09-16T05:29:37;74203.19;;;-142.11;100.00
14800;BME280;7491;57.750;11.970;2022-09-16T05:32:04;74207.25;;;-142.11;100.00
14800;BME280;7491;57.750;11.970;2022-09-16T05:34:33;74203.19;;;-142.11;100.00
14800;BME280;7491;57.750;11.970;2022-09-16T05:37:01;74207.25;;;-142.11;100.00
14800;BME280;7491;57.750;11.970;2022-09-16T05:39:27;74203.19;;;-142.11;100.00
14800;BME280;7491;57.750;11.970;2022-09-16T05:41:55;74209.28;;;-142.11;100.00
14800;BME280;7491;57.750;11.970;2022-09-16T05:44:22;74215.41;;;-142.11;100.00
14800;BME280;7491;57.750;11.970;2022-09-16T05:46:49;74219.50;;;-142.11;100.00
14800;BME280;7491;57.750;11.970;2022-09-16T05:49:16;74221.53;;;-142.11;100.00
14800;BME280;7491;57.750;11.970;2022-09-16T05:51:46;74217.44;;;-142.11;100.00
14800;BME280;7491;57.750;11.970;2022-09-16T05:54:14;74223.56;;;-142.11;100.00
14800;BME280;7491;57.750;11.970;2022-09-16T05:56:42;74223.56;;;-142.11;100.00
14800;BME280;7491;57.750;11.970;2022-09-16T05:59:11;74225.59;;;-142.11;100.00
14800;BME280;7491;57.750;11.970;2022-09-16T06:01:38;74229.69;;;-142.11;100.00
14800;BME280;7491;57.750;11.970;2022-09-16T06:04:06;74235.78;;;-142.11;100.00
14800;BME280;7491;57.750;11.970;2022-09-16T06:06:35;74237.81;;;-142.11;100.00
14800;BME280;7491;57.750;11.970;2022-09-16T06:09:06;74243.94;;;-142.11;100.00
14800;BME280;7491;57.750;11.970;2022-09-16T06:11:35;74235.78;;;-142.11;100.00
14800;BME280;7491;57.750;11.970;2022-09-16T06:14:02;74241.91;;;-142.11;100.00
14800;BME280;7491;57.750;11.970;2022-09-16T06:16:30;74248.00;;;-142.11;100.00
14800;BME280;7491;57.750;11.970;2022-09-16T06:18:58;74235.78;;;-142.11;100.00
14800;BME280;7491;57.750;11.970;2022-09-16T06:21:25;74233.75;;;-142.11;100.00
14800;BME280;7491;57.750;11.970;2022-09-16T06:23:52;74239.84;;;-142.11;100.00
14800;BME280;7491;57.750;11.970;2022-09-16T06:26:23;74229.69;;;-142.11;100.00
14800;BME280;7491;57.750;11.970;2022-09-16T06:28:51;74217.44;;;-142.11;100.00
14800;BME280;7491;57.750;11.970;2022-09-16T06:31:19;74207.25;;;-142.11;100.00
14800;BME280;7491;57.750;11.970;2022-09-16T06:33:46;74188.94;;;-142.11;100.00
14800;BME280;7491;57.750;11.970;2022-09-16T06:36:16;74172.63;;;-142.11;100.00
14800;BME280;7491;57.750;11.970;2022-09-16T06:38:43;74160.41;;;-142.11;100.00
14800;BME280;7491;57.750;11.970;2022-09-16T06:41:11;74146.16;;;-142.11;100.00
14800;BME280;7491;57.750;11.970;2022-09-16T06:43:39;74125.78;;;-142.11;100.00
14800;BME280;7491;57.750;11.970;2022-09-16T06:46:08;74115.59;;;-142.11;100.00
14800;BME280;7491;57.750;11.970;2022-09-16T06:48:38;74105.41;;;-142.11;100.00
14800;BME280;7491;57.750;11.970;2022-09-16T06:51:08;74095.22;;;-142.11;100.00
14800;BME280;7491;57.750;11.970;2022-09-16T06:53:35;74083.00;;;-142.11;100.00
14800;BME280;7491;57.750;11.970;2022-09-16T06:56:04;74087.06;;;-142.11;100.00
14800;BME280;7491;57.750;11.970;2022-09-16T06:58:32;74072.81;;;-142.11;100.00
14800;BME280;7491;57.750;11.970;2022-09-16T07:01:04;74078.91;;;-142.11;100.00
14800;BME280;7491;57.750;11.970;2022-09-16T07:03:31;74091.13;;;-142.11;100.00
14800;BME280;7491;57.750;11.970;2022-09-16T07:05:59;74095.22;;;-142.11;100.00
14800;BME280;7491;57.750;11.970;2022-09-16T07:08:27;74097.25;;;-142.11;100.00
14800;BME280;7491;57.750;11.970;2022-09-16T07:10:55;74089.09;;;-142.11;100.00
14800;BME280;7491;57.750;11.970;2022-09-16T07:13:22;74085.03;;;-142.11;100.00
14800;BME280;7491;57.750;11.970;2022-09-16T07:15:49;74074.84;;;-142.11;100.00
14800;BME280;7491;57.750;11.970;2022-09-16T07:18:17;74076.88;;;-142.11;100.00
14800;BME280;7491;57.750;11.970;2022-09-16T07:20:44;74072.81;;;-142.11;100.00
14800;BME280;7491;57.750;11.970;2022-09-16T07:23:10;74076.88;;;-142.11;100.00
14800;BME280;7491;57.750;11.970;2022-09-16T07:25:37;74068.72;;;-142.11;100.00
14800;BME280;7491;57.750;11.970;2022-09-16T07:28:03;74066.69;;;-142.11;100.00
14800;BME280;7491;57.750;11.970;2022-09-16T07:30:30;74060.56;;;-142.11;100.00
14800;BME280;7491;57.750;11.970;2022-09-16T07:32:58;74052.44;;;-142.11;100.00
14800;BME280;7491;57.750;11.970;2022-09-16T07:35:26;74038.16;;;-142.11;100.00
14800;BME280;7491;57.750;11.970;2022-09-16T07:37:53;74025.94;;;-142.11;100.00
14800;BME280;7491;57.750;11.970;2022-09-16T07:40:20;74027.97;;;-142.11;100.00
14800;BME280;7491;57.750;11.970;2022-09-16T07:42:46;74021.88;;;-142.11;100.00
14800;BME280;7491;57.750;11.970;2022-09-16T07:45:13;74013.72;;;-142.11;100.00
14800;BME280;7491;57.750;11.970;2022-09-16T07:47:40;74007.59;;;-142.11;100.00
14800;BME280;7491;57.750;11.970;2022-09-16T07:50:07;74019.84;;;-142.11;100.00
14800;BME280;7491;57.750;11.970;2022-09-16T07:52:36;74007.59;;;-142.11;100.00
14800;BME280;7491;57.750;11.970;2022-09-16T07:55:03;73999.47;;;-142.11;100.00
14800;BME280;7491;57.750;11.970;2022-09-16T07:57:29;73985.19;;;-142.11;100.00
14800;BME280;7491;57.750;11.970;2022-09-16T07:59:56;73993.34;;;-142.11;100.00
14800;BME280;7491;57.750;11.970;2022-09-16T08:02:23;74011.69;;;-142.11;100.00
14800;BME280;7491;57.750;11.970;2022-09-16T08:04:50;74009.66;;;-142.11;100.00
14800;BME280;7491;57.750;11.970;2022-09-16T08:07:17;74013.72;;;-142.11;100.00
14800;BME280;7491;57.750;11.970;2022-09-16T08:09:44;74011.69;;;-142.11;100.00
14800;BME280;7491;57.750;11.970;2022-09-16T08:12:11;74015.75;;;-142.11;100.00
14800;BME280;7491;57.750;11.970;2022-09-16T08:14:39;74015.75;;;-142.11;100.00
14800;BME280;7491;57.750;11.970;2022-09-16T08:17:06;74025.94;;;-142.11;100.00
14800;BME280;7491;57.750;11.970;2022-09-16T08:19:32;74025.94;;;-142.11;100.00
14800;BME280;7491;57.750;11.970;2022-09-16T08:21:59;74036.13;;;-142.11;100.00
14800;BME280;7491;57.750;11.970;2022-09-16T08:24:26;74036.13;;;-142.11;100.00
14800;BME280;7491;57.750;11.970;2022-09-16T08:26:54;74025.94;;;-142.11;100.00
14800;BME280;7491;57.750;11.970;2022-09-16T08:29:20;74017.78;;;-142.11;100.00
14800;BME280;7491;57.750;11.970;2022-09-16T08:31:49;74001.50;;;-142.11;100.00
14800;BME280;7491;57.750;11.970;2022-09-16T08:34:15;73993.34;;;-142.11;100.00
14800;BME280;7491;57.750;11.970;2022-09-16T08:36:42;73997.41;;;-142.11;100.00
14800;BME280;7491;57.750;11.970;2022-09-16T08:39:09;73987.25;;;-142.11;100.00
14800;BME280;7491;57.750;11.970;2022-09-16T08:42:06;73966.88;;;-142.11;100.00
14800;BME280;7491;57.750;11.970;2022-09-16T08:44:40;73962.78;;;-142.11;100.00
14800;BME280;7491;57.750;11.970;2022-09-16T08:47:21;73946.50;;;-142.11;100.00
14800;BME280;7491;57.750;11.970;2022-09-16T08:49:53;73934.28;;;-142.11;100.00
14800;BME280;7491;57.750;11.970;2022-09-16T08:52:27;73917.97;;;-142.11;100.00
14800;BME280;7491;57.750;11.970;2022-09-16T08:54:57;73922.03;;;-142.11;100.00
14800;BME280;7491;57.750;11.970;2022-09-16T08:57:28;73907.78;;;-142.11;100.00
14800;BME280;7491;57.750;11.970;2022-09-16T08:59:58;73889.44;;;-142.11;100.00
14800;BME280;7491;57.750;11.970;2022-09-16T09:02:36;73879.25;;;-142.11;100.00
14800;BME280;7491;57.750;11.970;2022-09-16T09:05:13;73889.44;;;-142.11;100.00
14800;BME280;7491;57.750;11.970;2022-09-16T09:07:49;73867.03;;;-142.11;100.00
14800;BME280;7491;57.750;11.970;2022-09-16T09:10:25;73854.81;;;-142.11;100.00
14800;BME280;7491;57.750;11.970;2022-09-16T09:13:01;73842.59;;;-142.11;100.00
14800;BME280;7491;57.750;11.970;2022-09-16T09:15:36;73832.41;;;-142.11;100.00
14800;BME280;7491;57.750;11.970;2022-09-16T09:18:16;73840.56;;;-142.11;100.00
14800;BME280;7491;57.750;11.970;2022-09-16T09:20:51;73842.59;;;-142.11;100.00
14800;BME280;7491;57.750;11.970;2022-09-16T09:23:39;73826.31;;;-142.11;100.00
14800;BME280;7491;57.750;11.970;2022-09-16T09:26:12;73814.06;;;-142.11;100.00
14800;BME280;7491;57.750;11.970;2022-09-16T09:31:37;73803.91;;;-142.11;100.00
14800;BME280;7491;57.750;11.970;2022-09-16T09:34:21;73801.84;;;-142.11;100.00
14800;BME280;7491;57.750;11.970;2022-09-16T09:37:03;73793.72;;;-142.11;100.00
14800;BME280;7491;57.750;11.970;2022-09-16T09:39:43;73771.31;;;-142.11;100.00
14800;BME280;7491;57.750;11.970;2022-09-16T09:42:18;73773.34;;;-142.11;100.00
14800;BME280;7491;57.750;11.970;2022-09-16T09:44:54;73777.41;;;-142.11;100.00
14800;BME280;7491;57.750;11.970;2022-09-16T09:47:25;73775.38;;;-142.11;100.00
14800;BME280;7491;57.750;11.970;2022-09-16T09:49:55;73769.25;;;-142.11;100.00
14800;BME280;7491;57.750;11.970;2022-09-16T09:52:27;73752.97;;;-142.11;100.00
14800;BME280;7491;57.750;11.970;2022-09-16T09:55:03;73740.75;;;-142.11;100.00
14800;BME280;7491;57.750;11.970;2022-09-16T09:57:33;73742.78;;;-142.11;100.00
14800;BME280;7491;57.750;11.970;2022-09-16T10:00:09;73744.81;;;-142.11;100.00
14800;BME280;7491;57.750;11.970;2022-09-16T10:02:39;73742.78;;;-142.11;100.00
14800;BME280;7491;57.750;11.970;2022-09-16T10:05:13;73744.81;;;-142.11;100.00
14800;BME280;7491;57.750;11.970;2022-09-16T10:07:45;73736.66;;;-142.11;100.00
14800;BME280;7491;57.750;11.970;2022-09-16T10:10:14;73738.72;;;-142.11;100.00
14800;BME280;7491;57.750;11.970;2022-09-16T10:12:41;73740.75;;;-142.11;100.00
14800;BME280;7491;57.750;11.970;2022-09-16T10:15:20;73726.47;;;-142.11;100.00
14800;BME280;7491;57.750;11.970;2022-09-16T10:17:48;73720.38;;;-142.11;100.00
14800;BME280;7491;57.750;11.970;2022-09-16T10:20:24;73704.06;;;-142.11;100.00
14800;BME280;7491;57.750;11.970;2022-09-16T10:22:54;73693.88;;;-142.11;100.00
14800;BME280;7491;57.750;11.970;2022-09-16T10:25:24;73697.97;;;-142.11;100.00
14800;BME280;7491;57.750;11.970;2022-09-16T10:27:54;73693.88;;;-142.11;100.00
14800;BME280;7491;57.750;11.970;2022-09-16T10:30:24;73691.84;;;-142.11;100.00
14800;BME280;7491;57.750;11.970;2022-09-16T10:32:54;73687.78;;;-142.11;100.00
14800;BME280;7491;57.750;11.970;2022-09-16T10:35:24;73677.59;;;-142.11;100.00
14800;BME280;7491;57.750;11.970;2022-09-16T10:37:54;73659.25;;;-142.11;100.00
14800;BME280;7491;57.750;11.970;2022-09-16T10:40:21;73638.88;;;-142.11;100.00
14800;BME280;7491;57.750;11.970;2022-09-16T10:42:49;73632.78;;;-142.11;100.00
14800;BME280;7491;57.750;11.970;2022-09-16T10:45:24;73645.00;;;-142.11;100.00
14800;BME280;7491;57.750;11.970;2022-09-16T10:47:54;73659.25;;;-142.11;100.00
14800;BME280;7491;57.750;11.970;2022-09-16T10:50:23;73675.56;;;-142.11;100.00
14800;BME280;7491;57.750;11.970;2022-09-16T10:52:50;73685.75;;;-142.11;100.00
14800;BME280;7491;57.750;11.970;2022-09-16T10:55:27;73671.47;;;-142.11;100.00
14800;BME280;7491;57.750;11.970;2022-09-16T10:58:06;73642.97;;;-142.11;100.00
14800;BME280;7491;57.750;11.970;2022-09-16T11:00:43;73636.84;;;-142.11;100.00
14800;BME280;7491;57.750;11.970;2022-09-16T11:06:31;73626.66;;;-142.11;100.00
14800;BME280;7491;57.750;11.970;2022-09-16T11:09:06;73630.75;;;-142.11;100.00
14800;BME280;7491;57.750;11.970;2022-09-16T11:11:52;73618.53;;;-142.11;100.00
14800;BME280;7491;57.750;11.970;2022-09-16T11:14:29;73610.38;;;-142.11;100.00
14800;BME280;7491;57.750;11.970;2022-09-16T11:17:14;73590.00;;;-142.11;100.00
14800;BME280;7491;57.750;11.970;2022-09-16T11:19:53;73579.81;;;-142.11;100.00
14800;BME280;7491;57.750;11.970;2022-09-16T11:22:27;73571.66;;;-142.11;100.00
14800;BME280;7491;57.750;11.970;2022-09-16T11:27:51;73600.19;;;-142.11;100.00
14800;BME280;7491;57.750;11.970;2022-09-16T11:30:22;73606.31;;;-142.11;100.00
14800;BME280;7491;57.750;11.970;2022-09-16T11:33:08;73592.03;;;-142.11;100.00
14800;BME280;7491;57.750;11.970;2022-09-16T11:35:46;73579.81;;;-142.11;100.00
14800;BME280;7491;57.750;11.970;2022-09-16T11:38:29;73575.75;;;-142.11;100.00
14800;BME280;7491;57.750;11.970;2022-09-16T11:41:08;73583.88;;;-142.11;100.00
14800;BME280;7491;57.750;11.970;2022-09-16T11:43:52;73590.00;;;-142.11;100.00
14800;BME280;7491;57.750;11.970;2022-09-16T11:46:28;73579.81;;;-142.11;100.00
14800;BME280;7491;57.750;11.970;2022-09-16T11:49:14;73585.94;;;-142.11;100.00
14800;BME280;7491;57.750;11.970;2022-09-16T11:51:56;73590.00;;;-142.11;100.00
14800;BME280;7491;57.750;11.970;2022-09-16T11:54:39;73551.31;;;-142.11;100.00
14800;BME280;7491;57.750;11.970;2022-09-16T11:57:09;73535.00;;;-142.11;100.00
14800;BME280;7491;57.750;11.970;2022-09-16T11:59:42;73549.25;;;-142.11;100.00
14800;BME280;7491;57.750;11.970;2022-09-16T12:02:15;73553.34;;;-142.11;100.00
14800;BME280;7491;57.750;11.970;2022-09-16T12:04:50;73547.22;;;-142.11;100.00
14800;BME280;7491;57.750;11.970;2022-09-16T12:07:24;73541.13;;;-142.11;100.00
14800;BME280;7491;57.750;11.970;2022-09-16T12:09:55;73532.97;;;-142.11;100.00
14800;BME280;7491;57.750;11.970;2022-09-16T12:12:28;73541.13;;;-142.11;100.00
14800;BME280;7491;57.750;11.970;2022-09-16T12:14:58;73539.06;;;-142.11;100.00
14800;BME280;7491;57.750;11.970;2022-09-16T12:17:30;73541.13;;;-142.11;100.00
14800;BME280;7491;57.750;11.970;2022-09-16T12:20:02;73539.06;;;-142.11;100.00
14800;BME280;7491;57.750;11.970;2022-09-16T12:22:35;73537.03;;;-142.11;100.00
14800;BME280;7491;57.750;11.970;2022-09-16T12:25:07;73555.38;;;-142.11;100.00
14800;BME280;7491;57.750;11.970;2022-09-16T12:27:40;73551.31;;;-142.11;100.00
14800;BME280;7491;57.750;11.970;2022-09-16T12:30:14;73567.59;;;-142.11;100.00
14800;BME280;7491;57.750;11.970;2022-09-16T12:32:49;73569.63;;;-142.11;100.00
14800;BME280;7491;57.750;11.970;2022-09-16T12:35:22;73563.53;;;-142.11;100.00
14800;BME280;7491;57.750;11.970;2022-09-16T12:37:51;73559.44;;;-142.11;100.00
14800;BME280;7491;57.750;11.970;2022-09-16T12:40:20;73547.22;;;-142.11;100.00
14800;BME280;7491;57.750;11.970;2022-09-16T12:43:17;73520.75;;;-142.11;100.00
14800;BME280;7491;57.750;11.970;2022-09-16T12:46:08;73522.78;;;-142.11;100.00
14800;BME280;7491;57.750;11.970;2022-09-16T12:49:17;73520.75;;;-142.11;100.00
14800;BME280;7491;57.750;11.970;2022-09-16T12:52:09;73518.72;;;-142.11;100.00
14800;BME280;7491;57.750;11.970;2022-09-16T12:55:04;73526.84;;;-142.11;100.00
14800;BME280;7491;57.750;11.970;2022-09-16T12:57:46;73516.69;;;-142.11;100.00
14800;BME280;7491;57.750;11.970;2022-09-16T13:00:18;73516.69;;;-142.11;100.00
14800;BME280;7491;57.750;11.970;2022-09-16T13:02:49;73541.13;;;-142.11;100.00